N420HA KTEB-KPWK
Flight info
| Callsign | N420HA |
|---|---|
| Flight time | N/A |
| Altitude | 43000 |
| Route | COATE Q436 YARRK TRESL WODDS FRSST PMM FIYER OBK |
| Aircraft | HDJT/L-SABDGRWY/H |
Departure
| Time | 2026-05-08 23:02 |
|---|---|
| Airport | Teterboro Airport (KTEB) |
Arrival
| Time | N/A |
|---|---|
| Airport | Chicago Executive Airport (KPWK) |
| Time | Latitude | Longitude | Altitude | Speed | Heading |
|---|---|---|---|---|---|
| 2026-05-08 22:30 | 40.85608 | -74.06146 | 9 ft | 0 kts | 219° |
| 2026-05-08 22:56 | 40.85591 | -74.06155 | 9 ft | 6 kts | 178° |
| 2026-05-08 22:56 | 40.85560 | -74.06122 | 10 ft | 1 kts | 125° |
| 2026-05-08 22:57 | 40.85559 | -74.06120 | 10 ft | 2 kts | 126° |
| 2026-05-08 22:57 | 40.85525 | -74.06065 | 11 ft | 12 kts | 149° |
| 2026-05-08 22:57 | 40.85410 | -74.06068 | 9 ft | 22 kts | 183° |
| 2026-05-08 22:57 | 40.85240 | -74.06080 | 10 ft | 25 kts | 184° |
| 2026-05-08 22:58 | 40.85091 | -74.06091 | 9 ft | 21 kts | 182° |
| 2026-05-08 22:58 | 40.84946 | -74.06104 | 9 ft | 20 kts | 181° |
| 2026-05-08 22:58 | 40.84811 | -74.06111 | 10 ft | 19 kts | 184° |
| 2026-05-08 22:58 | 40.84680 | -74.06123 | 9 ft | 19 kts | 184° |
| 2026-05-08 22:59 | 40.84550 | -74.06132 | 9 ft | 18 kts | 183° |
| 2026-05-08 22:59 | 40.84422 | -74.06141 | 8 ft | 18 kts | 184° |
| 2026-05-08 22:59 | 40.84297 | -74.06150 | 9 ft | 17 kts | 183° |
| 2026-05-08 22:59 | 40.84178 | -74.06159 | 9 ft | 17 kts | 182° |
| 2026-05-08 23:00 | 40.84061 | -74.06169 | 8 ft | 14 kts | 184° |
| 2026-05-08 23:00 | 40.83968 | -74.06176 | 9 ft | 12 kts | 182° |
| 2026-05-08 23:00 | 40.83895 | -74.06177 | 11 ft | 9 kts | 150° |
| 2026-05-08 23:00 | 40.83883 | -74.06137 | 9 ft | 0 kts | 93° |
| 2026-05-08 23:01 | 40.83881 | -74.06108 | 8 ft | 10 kts | 96° |
| 2026-05-08 23:01 | 40.83904 | -74.06035 | 7 ft | 13 kts | 0° |
| 2026-05-08 23:01 | 40.83915 | -74.06034 | 7 ft | 0 kts | 4° |
| 2026-05-08 23:01 | 40.84253 | -74.06009 | 9 ft | 93 kts | 3° |
| 2026-05-08 23:02 | 40.84813 | -74.05969 | 10 ft | 145 kts | 2° |
| 2026-05-08 23:02 | 40.86196 | -74.05816 | 783 ft | 149 kts | 0° |
| 2026-05-08 23:02 | 40.87276 | -74.05464 | 1293 ft | 169 kts | 25° |
| 2026-05-08 23:02 | 40.87874 | -74.04915 | 2046 ft | 142 kts | 31° |
| 2026-05-08 23:03 | 40.88570 | -74.04230 | 2809 ft | 138 kts | 29° |
| 2026-05-08 23:03 | 40.89579 | -74.03366 | 2583 ft | 201 kts | 22° |
| 2026-05-08 23:03 | 40.90895 | -74.03058 | 2656 ft | 180 kts | 345° |
| 2026-05-08 23:03 | 40.91863 | -74.03826 | 2638 ft | 155 kts | 303° |
| 2026-05-08 23:04 | 40.92101 | -74.05145 | 2523 ft | 146 kts | 268° |
| 2026-05-08 23:04 | 40.92031 | -74.06449 | 2514 ft | 139 kts | 267° |
| 2026-05-08 23:04 | 40.91963 | -74.07725 | 2505 ft | 140 kts | 267° |
| 2026-05-08 23:04 | 40.91895 | -74.09014 | 2473 ft | 140 kts | 267° |
| 2026-05-08 23:05 | 40.91829 | -74.10298 | 2429 ft | 140 kts | 267° |
| 2026-05-08 23:05 | 40.91762 | -74.11582 | 2397 ft | 140 kts | 267° |
| 2026-05-08 23:05 | 40.91696 | -74.12860 | 2362 ft | 139 kts | 267° |
| 2026-05-08 23:05 | 40.91629 | -74.14136 | 2333 ft | 139 kts | 268° |
| 2026-05-08 23:06 | 40.91561 | -74.15417 | 2309 ft | 139 kts | 267° |
| 2026-05-08 23:06 | 40.91492 | -74.16695 | 2281 ft | 140 kts | 267° |
| 2026-05-08 23:06 | 40.91422 | -74.17981 | 2242 ft | 140 kts | 267° |
| 2026-05-08 23:06 | 40.91356 | -74.19260 | 2232 ft | 139 kts | 267° |
| 2026-05-08 23:07 | 40.91289 | -74.20534 | 2227 ft | 139 kts | 268° |
| 2026-05-08 23:07 | 40.91211 | -74.21850 | 2376 ft | 154 kts | 267° |
| 2026-05-08 23:07 | 40.91128 | -74.23397 | 2678 ft | 183 kts | 267° |
| 2026-05-08 23:07 | 40.91047 | -74.25050 | 3097 ft | 186 kts | 267° |
| 2026-05-08 23:08 | 40.90962 | -74.26866 | 3346 ft | 215 kts | 268° |
| 2026-05-08 23:08 | 40.90868 | -74.28992 | 3577 ft | 243 kts | 268° |
| 2026-05-08 23:08 | 40.90769 | -74.31230 | 4240 ft | 247 kts | 268° |
| 2026-05-08 23:08 | 40.90671 | -74.33489 | 4987 ft | 250 kts | 268° |
| 2026-05-08 23:09 | 40.90570 | -74.35795 | 5739 ft | 252 kts | 268° |
| 2026-05-08 23:09 | 40.90459 | -74.38127 | 6490 ft | 255 kts | 267° |
| 2026-05-08 23:09 | 40.90354 | -74.40486 | 7236 ft | 258 kts | 268° |
| 2026-05-08 23:09 | 40.90255 | -74.42872 | 7973 ft | 262 kts | 268° |
| 2026-05-08 23:10 | 40.90200 | -74.45288 | 8701 ft | 264 kts | 276° |
| 2026-05-08 23:10 | 40.90813 | -74.47561 | 9433 ft | 268 kts | 303° |
| 2026-05-08 23:10 | 40.92074 | -74.49406 | 10133 ft | 273 kts | 315° |
| 2026-05-08 23:10 | 40.93505 | -74.51066 | 10838 ft | 277 kts | 320° |
| 2026-05-08 23:11 | 40.95118 | -74.52536 | 11377 ft | 275 kts | 326° |
| 2026-05-08 23:11 | 40.96655 | -74.53817 | 11930 ft | 249 kts | 324° |
| 2026-05-08 23:11 | 40.98031 | -74.55083 | 12917 ft | 238 kts | 322° |
| 2026-05-08 23:11 | 40.99388 | -74.56363 | 13659 ft | 242 kts | 322° |
| 2026-05-08 23:12 | 41.00776 | -74.57645 | 14404 ft | 245 kts | 323° |
| 2026-05-08 23:12 | 41.02185 | -74.58939 | 15141 ft | 248 kts | 322° |
| 2026-05-08 23:12 | 41.03571 | -74.60217 | 15856 ft | 251 kts | 322° |
| 2026-05-08 23:12 | 41.05011 | -74.61548 | 16580 ft | 254 kts | 322° |
| 2026-05-08 23:13 | 41.06467 | -74.62894 | 17291 ft | 257 kts | 323° |
| 2026-05-08 23:13 | 41.07943 | -74.64258 | 17999 ft | 260 kts | 323° |
| 2026-05-08 23:13 | 41.09435 | -74.65638 | 18690 ft | 263 kts | 323° |
| 2026-05-08 23:13 | 41.10943 | -74.67033 | 19375 ft | 266 kts | 323° |
| 2026-05-08 23:14 | 41.12446 | -74.68434 | 20036 ft | 269 kts | 321° |
| 2026-05-08 23:14 | 41.13789 | -74.70150 | 20699 ft | 269 kts | 307° |
| 2026-05-08 23:14 | 41.14806 | -74.72222 | 21346 ft | 271 kts | 298° |
| 2026-05-08 23:14 | 41.15755 | -74.74425 | 22002 ft | 275 kts | 299° |
| 2026-05-08 23:15 | 41.16726 | -74.76630 | 22663 ft | 278 kts | 299° |
| 2026-05-08 23:15 | 41.17701 | -74.78859 | 23306 ft | 281 kts | 299° |
| 2026-05-08 23:15 | 41.18682 | -74.81118 | 23943 ft | 284 kts | 299° |
| 2026-05-08 23:15 | 41.19674 | -74.83401 | 24557 ft | 287 kts | 299° |
| 2026-05-08 23:16 | 41.20677 | -74.85707 | 25146 ft | 290 kts | 299° |
| 2026-05-08 23:16 | 41.21691 | -74.88040 | 25713 ft | 293 kts | 299° |
| 2026-05-08 23:16 | 41.22715 | -74.90399 | 26258 ft | 296 kts | 299° |
| 2026-05-08 23:16 | 41.23747 | -74.92780 | 26783 ft | 299 kts | 299° |
| 2026-05-08 23:17 | 41.24806 | -74.95225 | 27297 ft | 302 kts | 299° |
| 2026-05-08 23:17 | 41.25839 | -74.97611 | 27777 ft | 304 kts | 299° |
| 2026-05-08 23:17 | 41.26897 | -75.00057 | 28249 ft | 307 kts | 299° |
| 2026-05-08 23:17 | 41.27990 | -75.02585 | 28717 ft | 309 kts | 299° |
| 2026-05-08 23:18 | 41.29054 | -75.05049 | 29152 ft | 312 kts | 299° |
| 2026-05-08 23:18 | 41.30110 | -75.07495 | 29567 ft | 314 kts | 299° |
| 2026-05-08 23:18 | 41.31204 | -75.10032 | 29981 ft | 317 kts | 299° |
| 2026-05-08 23:18 | 41.32301 | -75.12580 | 30383 ft | 319 kts | 299° |
| 2026-05-08 23:19 | 41.33407 | -75.15147 | 30777 ft | 320 kts | 299° |
| 2026-05-08 23:19 | 41.34512 | -75.17717 | 31242 ft | 319 kts | 299° |
| 2026-05-08 23:19 | 41.35614 | -75.20281 | 31684 ft | 319 kts | 299° |
| 2026-05-08 23:19 | 41.36713 | -75.22841 | 32116 ft | 318 kts | 299° |
| 2026-05-08 23:20 | 41.37809 | -75.25398 | 32538 ft | 317 kts | 299° |
| 2026-05-08 23:20 | 41.38904 | -75.27951 | 32944 ft | 317 kts | 298° |
| 2026-05-08 23:20 | 41.39997 | -75.30502 | 33336 ft | 316 kts | 298° |
| 2026-05-08 23:20 | 41.41086 | -75.33048 | 33721 ft | 316 kts | 298° |
| 2026-05-08 23:21 | 41.42173 | -75.35590 | 34098 ft | 315 kts | 298° |
| 2026-05-08 23:21 | 41.43256 | -75.38127 | 34458 ft | 315 kts | 298° |
| 2026-05-08 23:21 | 41.44358 | -75.40708 | 34823 ft | 314 kts | 298° |
| 2026-05-08 23:21 | 41.45418 | -75.43195 | 35162 ft | 314 kts | 298° |
| 2026-05-08 23:22 | 41.46495 | -75.45723 | 35495 ft | 313 kts | 298° |
| 2026-05-08 23:22 | 41.47539 | -75.48231 | 35818 ft | 313 kts | 294° |
| 2026-05-08 23:22 | 41.48337 | -75.50917 | 36135 ft | 312 kts | 290° |
| 2026-05-08 23:22 | 41.49109 | -75.53623 | 36443 ft | 312 kts | 291° |
| 2026-05-08 23:23 | 41.49898 | -75.56316 | 36736 ft | 312 kts | 290° |
| 2026-05-08 23:23 | 41.50678 | -75.59015 | 37020 ft | 312 kts | 290° |
| 2026-05-08 23:23 | 41.51450 | -75.61718 | 37300 ft | 312 kts | 290° |
| 2026-05-08 23:23 | 41.52226 | -75.64425 | 37572 ft | 312 kts | 290° |
| 2026-05-08 23:24 | 41.53003 | -75.67131 | 37838 ft | 312 kts | 290° |
| 2026-05-08 23:24 | 41.53779 | -75.69837 | 38099 ft | 312 kts | 290° |
| 2026-05-08 23:24 | 41.54554 | -75.72547 | 38350 ft | 312 kts | 290° |
| 2026-05-08 23:24 | 41.55329 | -75.75260 | 38601 ft | 312 kts | 290° |
| 2026-05-08 23:25 | 41.56102 | -75.77967 | 38842 ft | 312 kts | 290° |
| 2026-05-08 23:25 | 41.56875 | -75.80674 | 39077 ft | 312 kts | 290° |
| 2026-05-08 23:25 | 41.57647 | -75.83387 | 39308 ft | 312 kts | 290° |
| 2026-05-08 23:25 | 41.58409 | -75.86063 | 39534 ft | 312 kts | 290° |
| 2026-05-08 23:26 | 41.59180 | -75.88775 | 39752 ft | 312 kts | 290° |
| 2026-05-08 23:26 | 41.59950 | -75.91486 | 39966 ft | 312 kts | 290° |
| 2026-05-08 23:26 | 41.60719 | -75.94201 | 40177 ft | 312 kts | 290° |
| 2026-05-08 23:26 | 41.61488 | -75.96916 | 40380 ft | 312 kts | 290° |
| 2026-05-08 23:27 | 41.62256 | -75.99631 | 40582 ft | 312 kts | 290° |
| 2026-05-08 23:27 | 41.63024 | -76.02346 | 40784 ft | 312 kts | 290° |
| 2026-05-08 23:27 | 41.63791 | -76.05063 | 40975 ft | 312 kts | 290° |
| 2026-05-08 23:27 | 41.64560 | -76.07786 | 41160 ft | 312 kts | 290° |
| 2026-05-08 23:28 | 41.65326 | -76.10505 | 41344 ft | 312 kts | 290° |
| 2026-05-08 23:28 | 41.66091 | -76.13225 | 41525 ft | 313 kts | 290° |
| 2026-05-08 23:28 | 41.66857 | -76.15949 | 41697 ft | 313 kts | 290° |
| 2026-05-08 23:28 | 41.67622 | -76.18671 | 41872 ft | 313 kts | 290° |
| 2026-05-08 23:29 | 41.68385 | -76.21391 | 42041 ft | 313 kts | 290° |
| 2026-05-08 23:29 | 41.69148 | -76.24115 | 42205 ft | 313 kts | 290° |
| 2026-05-08 23:29 | 41.69968 | -76.27043 | 42375 ft | 313 kts | 290° |
| 2026-05-08 23:29 | 41.70674 | -76.29566 | 42524 ft | 313 kts | 290° |
| 2026-05-08 23:30 | 41.71435 | -76.32293 | 42677 ft | 313 kts | 290° |
| 2026-05-08 23:30 | 41.72197 | -76.35021 | 42827 ft | 313 kts | 290° |
| 2026-05-08 23:30 | 41.72957 | -76.37747 | 42973 ft | 313 kts | 290° |
| 2026-05-08 23:30 | 41.73717 | -76.40477 | 43114 ft | 313 kts | 290° |
| 2026-05-08 23:31 | 41.75241 | -76.45961 | 43159 ft | 321 kts | 290° |
| 2026-05-08 23:31 | 41.76818 | -76.51645 | 43161 ft | 330 kts | 290° |
| 2026-05-08 23:32 | 41.78433 | -76.57477 | 43163 ft | 338 kts | 290° |
| 2026-05-08 23:32 | 41.80084 | -76.63448 | 43165 ft | 345 kts | 290° |
| 2026-05-08 23:33 | 41.81761 | -76.69533 | 43168 ft | 351 kts | 290° |
| 2026-05-08 23:33 | 41.83451 | -76.75677 | 43172 ft | 356 kts | 290° |
| 2026-05-08 23:34 | 41.85174 | -76.81958 | 43173 ft | 361 kts | 290° |
| 2026-05-08 23:34 | 41.86912 | -76.88310 | 43170 ft | 365 kts | 290° |
| 2026-05-08 23:35 | 41.88665 | -76.94732 | 43172 ft | 368 kts | 289° |
| 2026-05-08 23:35 | 41.90419 | -77.01206 | 43173 ft | 370 kts | 289° |
| 2026-05-08 23:36 | 41.92183 | -77.07723 | 43172 ft | 372 kts | 289° |
| 2026-05-08 23:36 | 41.93954 | -77.14286 | 43173 ft | 375 kts | 289° |
| 2026-05-08 23:37 | 41.95721 | -77.20847 | 43175 ft | 377 kts | 289° |
| 2026-05-08 23:37 | 41.97502 | -77.27487 | 43173 ft | 378 kts | 289° |
| 2026-05-08 23:38 | 41.99289 | -77.34160 | 43174 ft | 379 kts | 289° |
| 2026-05-08 23:38 | 42.01074 | -77.40846 | 43174 ft | 381 kts | 289° |
| 2026-05-08 23:39 | 42.02898 | -77.47543 | 43170 ft | 382 kts | 290° |
| 2026-05-08 23:39 | 42.04726 | -77.54248 | 43172 ft | 382 kts | 289° |
| 2026-05-08 23:40 | 42.06551 | -77.60986 | 43172 ft | 383 kts | 289° |
| 2026-05-08 23:40 | 42.08367 | -77.67689 | 43172 ft | 384 kts | 289° |
| 2026-05-08 23:41 | 42.10189 | -77.74447 | 43173 ft | 384 kts | 289° |
| 2026-05-08 23:41 | 42.12012 | -77.81221 | 43173 ft | 384 kts | 289° |
| 2026-05-08 23:42 | 42.13830 | -77.87997 | 43174 ft | 385 kts | 289° |
| 2026-05-08 23:42 | 42.15647 | -77.94784 | 43173 ft | 385 kts | 289° |
| 2026-05-08 23:43 | 42.17462 | -78.01586 | 43172 ft | 385 kts | 289° |
| 2026-05-08 23:43 | 42.19272 | -78.08389 | 43173 ft | 385 kts | 289° |
| 2026-05-08 23:44 | 42.21079 | -78.15198 | 43172 ft | 386 kts | 289° |
| 2026-05-08 23:44 | 42.22884 | -78.22020 | 43172 ft | 386 kts | 289° |
| 2026-05-08 23:45 | 42.24619 | -78.28597 | 43173 ft | 386 kts | 289° |